sensor_id;sensor_type;location;lat;lon;timestamp;P1;durP1;ratioP1;P2;durP2;ratioP2
41693;SDS011;27377;50.666;9.150;2023-02-28T00:02:19;5.47;;;3.60;;
41693;SDS011;27377;50.666;9.150;2023-02-28T00:04:45;6.75;;;3.70;;
41693;SDS011;27377;50.666;9.150;2023-02-28T00:07:17;7.50;;;3.75;;
41693;SDS011;27377;50.666;9.150;2023-02-28T00:09:43;5.90;;;3.70;;
41693;SDS011;27377;50.666;9.150;2023-02-28T00:12:09;5.30;;;3.50;;
41693;SDS011;27377;50.666;9.150;2023-02-28T00:14:35;5.80;;;3.40;;
41693;SDS011;27377;50.666;9.150;2023-02-28T00:17:01;6.72;;;3.50;;
41693;SDS011;27377;50.666;9.150;2023-02-28T00:19:27;6.57;;;3.73;;
41693;SDS011;27377;50.666;9.150;2023-02-28T00:21:53;5.43;;;3.60;;
41693;SDS011;27377;50.666;9.150;2023-02-28T00:24:18;7.30;;;3.80;;
41693;SDS011;27377;50.666;9.150;2023-02-28T00:26:44;6.90;;;3.80;;
41693;SDS011;27377;50.666;9.150;2023-02-28T00:29:09;6.63;;;3.88;;
41693;SDS011;27377;50.666;9.150;2023-02-28T00:31:35;6.65;;;3.70;;
41693;SDS011;27377;50.666;9.150;2023-02-28T00:34:00;6.68;;;3.53;;
41693;SDS011;27377;50.666;9.150;2023-02-28T00:36:26;8.10;;;3.97;;
41693;SDS011;27377;50.666;9.150;2023-02-28T00:38:51;7.90;;;3.77;;
41693;SDS011;27377;50.666;9.150;2023-02-28T00:41:17;6.17;;;3.60;;
41693;SDS011;27377;50.666;9.150;2023-02-28T00:43:43;6.20;;;3.72;;
41693;SDS011;27377;50.666;9.150;2023-02-28T00:46:09;5.57;;;3.47;;
41693;SDS011;27377;50.666;9.150;2023-02-28T00:48:34;5.03;;;3.45;;
41693;SDS011;27377;50.666;9.150;2023-02-28T00:51:00;6.70;;;4.10;;
41693;SDS011;27377;50.666;9.150;2023-02-28T00:53:26;7.07;;;3.83;;
41693;SDS011;27377;50.666;9.150;2023-02-28T00:55:52;8.50;;;3.70;;
41693;SDS011;27377;50.666;9.150;2023-02-28T00:58:17;5.67;;;3.60;;
41693;SDS011;27377;50.666;9.150;2023-02-28T01:00:43;6.72;;;3.90;;
41693;SDS011;27377;50.666;9.150;2023-02-28T01:03:13;6.65;;;4.05;;
41693;SDS011;27377;50.666;9.150;2023-02-28T01:05:40;5.77;;;3.90;;
41693;SDS011;27377;50.666;9.150;2023-02-28T01:08:06;6.60;;;4.10;;
41693;SDS011;27377;50.666;9.150;2023-02-28T01:10:32;6.50;;;3.90;;
41693;SDS011;27377;50.666;9.150;2023-02-28T01:12:57;5.50;;;4.05;;
41693;SDS011;27377;50.666;9.150;2023-02-28T01:15:23;7.38;;;4.32;;
41693;SDS011;27377;50.666;9.150;2023-02-28T01:17:49;7.07;;;4.40;;
41693;SDS011;27377;50.666;9.150;2023-02-28T01:20:14;7.10;;;4.30;;
41693;SDS011;27377;50.666;9.150;2023-02-28T01:22:40;6.17;;;4.30;;
41693;SDS011;27377;50.666;9.150;2023-02-28T01:25:06;7.20;;;4.65;;
41693;SDS011;27377;50.666;9.150;2023-02-28T01:27:31;6.38;;;4.20;;
41693;SDS011;27377;50.666;9.150;2023-02-28T01:29:58;6.50;;;4.10;;
41693;SDS011;27377;50.666;9.150;2023-02-28T01:32:23;6.47;;;3.83;;
41693;SDS011;27377;50.666;9.150;2023-02-28T01:34:49;5.90;;;3.80;;
41693;SDS011;27377;50.666;9.150;2023-02-28T01:37:14;6.30;;;3.83;;
41693;SDS011;27377;50.666;9.150;2023-02-28T01:39:40;6.70;;;3.80;;
41693;SDS011;27377;50.666;9.150;2023-02-28T01:42:07;5.70;;;3.80;;
41693;SDS011;27377;50.666;9.150;2023-02-28T01:47:20;5.80;;;3.83;;
41693;SDS011;27377;50.666;9.150;2023-02-28T01:49:47;7.43;;;3.97;;
41693;SDS011;27377;50.666;9.150;2023-02-28T01:52:13;5.30;;;3.67;;
41693;SDS011;27377;50.666;9.150;2023-02-28T01:54:43;6.88;;;4.18;;
41693;SDS011;27377;50.666;9.150;2023-02-28T01:57:13;6.82;;;4.10;;
41693;SDS011;27377;50.666;9.150;2023-02-28T02:02:24;5.55;;;3.78;;
41693;SDS011;27377;50.666;9.150;2023-02-28T02:07:20;5.70;;;3.67;;
41693;SDS011;27377;50.666;9.150;2023-02-28T02:09:48;7.13;;;4.10;;
41693;SDS011;27377;50.666;9.150;2023-02-28T02:12:25;5.77;;;3.77;;
41693;SDS011;27377;50.666;9.150;2023-02-28T02:18:10;6.03;;;3.70;;
41693;SDS011;27377;50.666;9.150;2023-02-28T02:20:49;6.85;;;3.90;;
41693;SDS011;27377;50.666;9.150;2023-02-28T02:23:43;5.87;;;4.00;;
41693;SDS011;27377;50.666;9.150;2023-02-28T02:29:21;6.25;;;3.97;;
41693;SDS011;27377;50.666;9.150;2023-02-28T02:34:48;6.38;;;3.97;;
41693;SDS011;27377;50.666;9.150;2023-02-28T02:37:36;6.10;;;4.13;;
41693;SDS011;27377;50.666;9.150;2023-02-28T02:40:19;6.63;;;4.05;;
41693;SDS011;27377;50.666;9.150;2023-02-28T02:42:54;6.88;;;4.03;;
41693;SDS011;27377;50.666;9.150;2023-02-28T02:45:40;5.75;;;4.40;;
41693;SDS011;27377;50.666;9.150;2023-02-28T02:48:14;6.70;;;4.00;;
41693;SDS011;27377;50.666;9.150;2023-02-28T02:50:43;6.77;;;4.00;;
41693;SDS011;27377;50.666;9.150;2023-02-28T02:53:14;6.55;;;4.10;;
41693;SDS011;27377;50.666;9.150;2023-02-28T02:55:44;7.50;;;4.30;;
41693;SDS011;27377;50.666;9.150;2023-02-28T02:58:18;6.97;;;4.38;;
41693;SDS011;27377;50.666;9.150;2023-02-28T03:00:52;8.13;;;4.18;;
41693;SDS011;27377;50.666;9.150;2023-02-28T03:03:20;7.03;;;4.13;;
41693;SDS011;27377;50.666;9.150;2023-02-28T03:05:54;6.93;;;4.30;;
41693;SDS011;27377;50.666;9.150;2023-02-28T03:08:22;5.95;;;4.18;;
41693;SDS011;27377;50.666;9.150;2023-02-28T03:10:48;6.55;;;4.55;;
41693;SDS011;27377;50.666;9.150;2023-02-28T03:22:34;7.10;;;4.68;;
41693;SDS011;27377;50.666;9.150;2023-02-28T03:33:20;7.03;;;4.72;;
41693;SDS011;27377;50.666;9.150;2023-02-28T03:35:56;7.10;;;4.60;;
41693;SDS011;27377;50.666;9.150;2023-02-28T03:38:28;7.23;;;4.63;;
41693;SDS011;27377;50.666;9.150;2023-02-28T03:41:06;8.23;;;4.72;;
41693;SDS011;27377;50.666;9.150;2023-02-28T03:43:34;6.75;;;4.50;;
41693;SDS011;27377;50.666;9.150;2023-02-28T03:46:05;7.50;;;5.00;;
41693;SDS011;27377;50.666;9.150;2023-02-28T03:48:37;6.55;;;4.72;;
41693;SDS011;27377;50.666;9.150;2023-02-28T03:51:15;7.20;;;5.10;;
41693;SDS011;27377;50.666;9.150;2023-02-28T03:53:47;8.00;;;4.90;;
41693;SDS011;27377;50.666;9.150;2023-02-28T03:59:07;6.05;;;4.82;;
41693;SDS011;27377;50.666;9.150;2023-02-28T04:01:44;6.85;;;4.68;;
41693;SDS011;27377;50.666;9.150;2023-02-28T04:04:11;7.80;;;5.00;;
41693;SDS011;27377;50.666;9.150;2023-02-28T04:06:38;6.55;;;4.68;;
41693;SDS011;27377;50.666;9.150;2023-02-28T04:09:05;6.63;;;5.15;;
41693;SDS011;27377;50.666;9.150;2023-02-28T04:11:37;6.30;;;4.55;;
41693;SDS011;27377;50.666;9.150;2023-02-28T04:14:11;7.70;;;4.90;;
41693;SDS011;27377;50.666;9.150;2023-02-28T04:16:38;6.18;;;4.40;;
41693;SDS011;27377;50.666;9.150;2023-02-28T04:19:06;6.75;;;4.40;;
41693;SDS011;27377;50.666;9.150;2023-02-28T04:21:35;7.15;;;4.72;;
41693;SDS011;27377;50.666;9.150;2023-02-28T04:24:04;7.18;;;4.88;;
41693;SDS011;27377;50.666;9.150;2023-02-28T04:26:30;9.70;;;5.57;;
41693;SDS011;27377;50.666;9.150;2023-02-28T04:28:58;7.32;;;5.18;;
41693;SDS011;27377;50.666;9.150;2023-02-28T04:31:24;7.40;;;5.13;;
41693;SDS011;27377;50.666;9.150;2023-02-28T04:33:53;7.60;;;5.10;;
41693;SDS011;27377;50.666;9.150;2023-02-28T04:36:19;8.52;;;5.03;;
41693;SDS011;27377;50.666;9.150;2023-02-28T04:38:45;7.47;;;5.03;;
41693;SDS011;27377;50.666;9.150;2023-02-28T04:41:14;6.35;;;4.53;;
41693;SDS011;27377;50.666;9.150;2023-02-28T04:43:40;6.90;;;4.87;;
41693;SDS011;27377;50.666;9.150;2023-02-28T04:46:09;7.10;;;4.60;;
41693;SDS011;27377;50.666;9.150;2023-02-28T04:48:38;7.60;;;5.20;;
41693;SDS011;27377;50.666;9.150;2023-02-28T04:51:05;7.25;;;5.15;;
41693;SDS011;27377;50.666;9.150;2023-02-28T04:53:33;6.43;;;4.70;;
41693;SDS011;27377;50.666;9.150;2023-02-28T04:55:59;9.13;;;5.03;;
41693;SDS011;27377;50.666;9.150;2023-02-28T04:58:25;7.55;;;4.80;;
41693;SDS011;27377;50.666;9.150;2023-02-28T05:00:56;7.03;;;4.50;;
41693;SDS011;27377;50.666;9.150;2023-02-28T05:03:41;7.75;;;5.05;;
41693;SDS011;27377;50.666;9.150;2023-02-28T05:06:07;6.97;;;5.27;;
41693;SDS011;27377;50.666;9.150;2023-02-28T05:08:33;7.28;;;5.03;;
41693;SDS011;27377;50.666;9.150;2023-02-28T05:10:59;7.27;;;5.30;;
41693;SDS011;27377;50.666;9.150;2023-02-28T05:13:29;8.18;;;5.20;;
41693;SDS011;27377;50.666;9.150;2023-02-28T05:15:57;7.70;;;5.18;;
41693;SDS011;27377;50.666;9.150;2023-02-28T05:18:23;6.72;;;4.80;;
41693;SDS011;27377;50.666;9.150;2023-02-28T05:20:49;7.35;;;4.82;;
41693;SDS011;27377;50.666;9.150;2023-02-28T05:23:15;6.82;;;4.82;;
41693;SDS011;27377;50.666;9.150;2023-02-28T05:25:42;7.82;;;4.90;;
41693;SDS011;27377;50.666;9.150;2023-02-28T05:28:08;8.17;;;4.80;;
41693;SDS011;27377;50.666;9.150;2023-02-28T05:30:33;6.65;;;4.72;;
41693;SDS011;27377;50.666;9.150;2023-02-28T05:32:59;7.72;;;5.13;;
41693;SDS011;27377;50.666;9.150;2023-02-28T05:35:25;7.28;;;4.78;;
41693;SDS011;27377;50.666;9.150;2023-02-28T05:37:51;7.60;;;4.80;;
41693;SDS011;27377;50.666;9.150;2023-02-28T05:40:20;7.32;;;4.85;;
41693;SDS011;27377;50.666;9.150;2023-02-28T05:42:46;6.57;;;4.50;;
41693;SDS011;27377;50.666;9.150;2023-02-28T05:45:12;7.82;;;4.90;;
41693;SDS011;27377;50.666;9.150;2023-02-28T05:47:37;8.33;;;4.67;;
41693;SDS011;27377;50.666;9.150;2023-02-28T05:50:03;6.60;;;4.65;;
41693;SDS011;27377;50.666;9.150;2023-02-28T05:52:34;7.75;;;4.85;;
41693;SDS011;27377;50.666;9.150;2023-02-28T05:54:59;6.37;;;4.63;;
41693;SDS011;27377;50.666;9.150;2023-02-28T05:57:25;7.47;;;4.97;;
41693;SDS011;27377;50.666;9.150;2023-02-28T05:59:54;7.40;;;4.67;;
41693;SDS011;27377;50.666;9.150;2023-02-28T06:02:19;8.27;;;4.80;;
41693;SDS011;27377;50.666;9.150;2023-02-28T06:04:45;10.27;;;5.70;;
41693;SDS011;27377;50.666;9.150;2023-02-28T06:07:10;9.50;;;5.57;;
41693;SDS011;27377;50.666;9.150;2023-02-28T06:09:36;8.17;;;5.27;;
41693;SDS011;27377;50.666;9.150;2023-02-28T06:12:02;8.55;;;5.50;;
41693;SDS011;27377;50.666;9.150;2023-02-28T06:14:30;8.68;;;5.07;;
41693;SDS011;27377;50.666;9.150;2023-02-28T06:16:57;8.23;;;5.10;;
41693;SDS011;27377;50.666;9.150;2023-02-28T06:19:23;9.70;;;5.87;;
41693;SDS011;27377;50.666;9.150;2023-02-28T06:21:50;10.65;;;7.63;;
41693;SDS011;27377;50.666;9.150;2023-02-28T06:24:18;11.18;;;7.60;;
41693;SDS011;27377;50.666;9.150;2023-02-28T06:26:44;9.85;;;7.18;;
41693;SDS011;27377;50.666;9.150;2023-02-28T06:29:10;9.00;;;6.70;;
41693;SDS011;27377;50.666;9.150;2023-02-28T06:31:36;9.73;;;5.93;;
41693;SDS011;27377;50.666;9.150;2023-02-28T06:34:03;9.93;;;6.10;;
41693;SDS011;27377;50.666;9.150;2023-02-28T06:36:29;7.97;;;5.73;;
41693;SDS011;27377;50.666;9.150;2023-02-28T06:38:57;9.02;;;5.65;;
41693;SDS011;27377;50.666;9.150;2023-02-28T06:41:24;8.30;;;5.20;;
41693;SDS011;27377;50.666;9.150;2023-02-28T06:43:50;8.82;;;5.50;;
41693;SDS011;27377;50.666;9.150;2023-02-28T06:46:16;7.63;;;5.30;;
41693;SDS011;27377;50.666;9.150;2023-02-28T06:48:43;7.50;;;5.20;;
41693;SDS011;27377;50.666;9.150;2023-02-28T06:51:13;8.73;;;5.47;;
41693;SDS011;27377;50.666;9.150;2023-02-28T06:53:42;8.75;;;4.93;;
41693;SDS011;27377;50.666;9.150;2023-02-28T06:56:09;8.63;;;5.00;;
41693;SDS011;27377;50.666;9.150;2023-02-28T06:58:37;6.55;;;4.65;;
41693;SDS011;27377;50.666;9.150;2023-02-28T07:01:04;7.97;;;4.80;;
41693;SDS011;27377;50.666;9.150;2023-02-28T07:03:30;7.72;;;4.88;;
41693;SDS011;27377;50.666;9.150;2023-02-28T07:05:56;8.20;;;5.05;;
41693;SDS011;27377;50.666;9.150;2023-02-28T07:08:25;8.15;;;5.20;;
41693;SDS011;27377;50.666;9.150;2023-02-28T07:10:53;7.50;;;4.77;;
41693;SDS011;27377;50.666;9.150;2023-02-28T07:13:22;7.10;;;4.70;;
41693;SDS011;27377;50.666;9.150;2023-02-28T07:15:54;7.97;;;4.55;;
41693;SDS011;27377;50.666;9.150;2023-02-28T07:18:24;7.80;;;4.70;;
41693;SDS011;27377;50.666;9.150;2023-02-28T07:20:51;7.80;;;4.85;;
41693;SDS011;27377;50.666;9.150;2023-02-28T07:23:17;7.95;;;4.63;;
41693;SDS011;27377;50.666;9.150;2023-02-28T07:25:43;7.75;;;4.22;;
41693;SDS011;27377;50.666;9.150;2023-02-28T07:28:10;6.90;;;4.40;;
41693;SDS011;27377;50.666;9.150;2023-02-28T07:30:36;6.77;;;4.10;;
41693;SDS011;27377;50.666;9.150;2023-02-28T07:33:02;6.37;;;4.23;;
41693;SDS011;27377;50.666;9.150;2023-02-28T07:35:27;8.15;;;4.20;;
41693;SDS011;27377;50.666;9.150;2023-02-28T07:37:53;7.00;;;4.18;;
41693;SDS011;27377;50.666;9.150;2023-02-28T07:40:18;8.00;;;3.92;;
41693;SDS011;27377;50.666;9.150;2023-02-28T07:42:44;6.65;;;3.92;;
41693;SDS011;27377;50.666;9.150;2023-02-28T07:45:10;14.70;;;3.70;;
41693;SDS011;27377;50.666;9.150;2023-02-28T07:47:37;6.95;;;3.50;;
41693;SDS011;27377;50.666;9.150;2023-02-28T07:50:04;5.97;;;3.50;;
41693;SDS011;27377;50.666;9.150;2023-02-28T07:52:30;4.97;;;3.20;;
41693;SDS011;27377;50.666;9.150;2023-02-28T07:54:57;5.83;;;3.43;;
41693;SDS011;27377;50.666;9.150;2023-02-28T07:57:22;5.88;;;3.28;;
41693;SDS011;27377;50.666;9.150;2023-02-28T07:59:48;6.03;;;3.28;;
41693;SDS011;27377;50.666;9.150;2023-02-28T08:02:14;5.80;;;3.15;;
41693;SDS011;27377;50.666;9.150;2023-02-28T08:04:43;5.22;;;3.10;;
41693;SDS011;27377;50.666;9.150;2023-02-28T08:07:09;5.50;;;3.20;;
41693;SDS011;27377;50.666;9.150;2023-02-28T08:09:38;5.83;;;3.30;;
41693;SDS011;27377;50.666;9.150;2023-02-28T08:12:04;5.60;;;3.17;;
41693;SDS011;27377;50.666;9.150;2023-02-28T08:14:30;5.72;;;3.10;;
41693;SDS011;27377;50.666;9.150;2023-02-28T08:16:56;5.30;;;2.80;;
41693;SDS011;27377;50.666;9.150;2023-02-28T08:19:22;4.40;;;2.63;;
41693;SDS011;27377;50.666;9.150;2023-02-28T08:21:47;5.15;;;2.70;;
41693;SDS011;27377;50.666;9.150;2023-02-28T08:24:13;5.70;;;2.83;;
41693;SDS011;27377;50.666;9.150;2023-02-28T08:26:38;4.87;;;2.70;;
41693;SDS011;27377;50.666;9.150;2023-02-28T08:29:04;5.63;;;2.63;;
41693;SDS011;27377;50.666;9.150;2023-02-28T08:31:29;5.10;;;2.67;;
41693;SDS011;27377;50.666;9.150;2023-02-28T08:33:55;5.17;;;2.80;;
41693;SDS011;27377;50.666;9.150;2023-02-28T08:36:23;5.47;;;2.70;;
41693;SDS011;27377;50.666;9.150;2023-02-28T08:38:49;4.53;;;2.40;;
41693;SDS011;27377;50.666;9.150;2023-02-28T08:41:15;4.65;;;2.63;;
41693;SDS011;27377;50.666;9.150;2023-02-28T08:43:40;4.27;;;2.57;;
41693;SDS011;27377;50.666;9.150;2023-02-28T08:46:06;5.07;;;2.63;;
41693;SDS011;27377;50.666;9.150;2023-02-28T08:48:33;4.97;;;2.70;;
41693;SDS011;27377;50.666;9.150;2023-02-28T08:51:01;4.60;;;2.80;;
41693;SDS011;27377;50.666;9.150;2023-02-28T08:53:29;4.35;;;2.60;;
41693;SDS011;27377;50.666;9.150;2023-02-28T08:56:03;5.35;;;2.88;;
41693;SDS011;27377;50.666;9.150;2023-02-28T08:58:36;6.55;;;2.88;;
41693;SDS011;27377;50.666;9.150;2023-02-28T09:03:35;4.55;;;2.50;;
41693;SDS011;27377;50.666;9.150;2023-02-28T09:06:01;5.47;;;2.70;;
41693;SDS011;27377;50.666;9.150;2023-02-28T09:08:28;5.10;;;2.75;;
41693;SDS011;27377;50.666;9.150;2023-02-28T09:10:55;4.10;;;2.40;;
41693;SDS011;27377;50.666;9.150;2023-02-28T09:13:22;4.90;;;2.80;;
41693;SDS011;27377;50.666;9.150;2023-02-28T09:15:48;5.03;;;2.65;;
41693;SDS011;27377;50.666;9.150;2023-02-28T09:18:14;5.20;;;2.80;;
41693;SDS011;27377;50.666;9.150;2023-02-28T09:20:40;5.30;;;2.75;;
41693;SDS011;27377;50.666;9.150;2023-02-28T09:23:07;4.80;;;2.80;;
41693;SDS011;27377;50.666;9.150;2023-02-28T09:25:33;5.10;;;2.60;;
41693;SDS011;27377;50.666;9.150;2023-02-28T09:27:59;6.45;;;2.83;;
41693;SDS011;27377;50.666;9.150;2023-02-28T09:30:25;4.83;;;2.80;;
41693;SDS011;27377;50.666;9.150;2023-02-28T09:32:51;4.43;;;2.80;;
41693;SDS011;27377;50.666;9.150;2023-02-28T09:35:19;5.38;;;3.00;;
41693;SDS011;27377;50.666;9.150;2023-02-28T09:37:49;4.95;;;3.00;;
41693;SDS011;27377;50.666;9.150;2023-02-28T09:40:17;5.43;;;2.90;;
41693;SDS011;27377;50.666;9.150;2023-02-28T09:42:45;5.63;;;3.00;;
41693;SDS011;27377;50.666;9.150;2023-02-28T09:45:23;4.33;;;3.10;;
41693;SDS011;27377;50.666;9.150;2023-02-28T09:47:54;4.93;;;3.08;;
41693;SDS011;27377;50.666;9.150;2023-02-28T09:52:55;4.85;;;3.20;;
41693;SDS011;27377;50.666;9.150;2023-02-28T09:55:22;5.17;;;3.20;;
41693;SDS011;27377;50.666;9.150;2023-02-28T09:58:04;5.47;;;3.10;;
41693;SDS011;27377;50.666;9.150;2023-02-28T10:00:34;5.88;;;3.42;;
41693;SDS011;27377;50.666;9.150;2023-02-28T10:05:52;7.10;;;3.47;;
41693;SDS011;27377;50.666;9.150;2023-02-28T10:08:28;6.40;;;3.50;;
41693;SDS011;27377;50.666;9.150;2023-02-28T10:11:08;5.37;;;3.43;;
41693;SDS011;27377;50.666;9.150;2023-02-28T10:16:16;5.95;;;3.60;;
41693;SDS011;27377;50.666;9.150;2023-02-28T10:23:56;5.47;;;3.88;;
41693;SDS011;27377;50.666;9.150;2023-02-28T10:26:28;6.30;;;4.00;;
41693;SDS011;27377;50.666;9.150;2023-02-28T10:28:55;5.87;;;3.70;;
41693;SDS011;27377;50.666;9.150;2023-02-28T10:31:21;5.63;;;3.90;;
41693;SDS011;27377;50.666;9.150;2023-02-28T10:33:47;7.07;;;4.10;;
41693;SDS011;27377;50.666;9.150;2023-02-28T10:36:14;5.97;;;3.60;;
41693;SDS011;27377;50.666;9.150;2023-02-28T10:38:42;5.45;;;3.75;;
41693;SDS011;27377;50.666;9.150;2023-02-28T10:41:09;5.93;;;4.00;;
41693;SDS011;27377;50.666;9.150;2023-02-28T10:43:37;7.25;;;4.18;;
41693;SDS011;27377;50.666;9.150;2023-02-28T10:46:11;6.97;;;3.92;;
41693;SDS011;27377;50.666;9.150;2023-02-28T10:48:57;6.97;;;4.00;;
41693;SDS011;27377;50.666;9.150;2023-02-28T10:51:26;6.80;;;4.10;;
41693;SDS011;27377;50.666;9.150;2023-02-28T10:54:01;5.75;;;3.80;;
41693;SDS011;27377;50.666;9.150;2023-02-28T10:56:28;6.88;;;3.90;;
41693;SDS011;27377;50.666;9.150;2023-02-28T10:59:22;6.47;;;3.95;;
41693;SDS011;27377;50.666;9.150;2023-02-28T11:01:53;6.75;;;4.18;;
41693;SDS011;27377;50.666;9.150;2023-02-28T11:06:48;6.25;;;4.10;;
41693;SDS011;27377;50.666;9.150;2023-02-28T11:12:04;6.05;;;3.95;;
41693;SDS011;27377;50.666;9.150;2023-02-28T11:14:47;7.50;;;3.80;;
41693;SDS011;27377;50.666;9.150;2023-02-28T11:17:23;6.40;;;3.85;;
41693;SDS011;27377;50.666;9.150;2023-02-28T11:19:55;6.28;;;3.83;;
41693;SDS011;27377;50.666;9.150;2023-02-28T11:22:25;6.55;;;4.00;;
41693;SDS011;27377;50.666;9.150;2023-02-28T11:24:57;6.63;;;3.83;;
41693;SDS011;27377;50.666;9.150;2023-02-28T11:29:58;6.20;;;3.78;;
41693;SDS011;27377;50.666;9.150;2023-02-28T11:32:26;7.80;;;3.85;;
41693;SDS011;27377;50.666;9.150;2023-02-28T11:37:36;6.80;;;3.75;;
41693;SDS011;27377;50.666;9.150;2023-02-28T11:40:05;6.35;;;4.03;;
41693;SDS011;27377;50.666;9.150;2023-02-28T11:45:32;6.63;;;4.00;;
41693;SDS011;27377;50.666;9.150;2023-02-28T11:48:22;7.18;;;4.10;;
41693;SDS011;27377;50.666;9.150;2023-02-28T11:51:02;6.90;;;3.80;;
41693;SDS011;27377;50.666;9.150;2023-02-28T11:53:55;6.97;;;4.13;;
41693;SDS011;27377;50.666;9.150;2023-02-28T11:59:31;6.75;;;4.03;;
41693;SDS011;27377;50.666;9.150;2023-02-28T12:02:20;6.37;;;4.10;;
41693;SDS011;27377;50.666;9.150;2023-02-28T12:10:29;6.50;;;4.00;;
41693;SDS011;27377;50.666;9.150;2023-02-28T12:13:03;6.93;;;4.10;;
41693;SDS011;27377;50.666;9.150;2023-02-28T12:15:46;6.60;;;4.13;;
41693;SDS011;27377;50.666;9.150;2023-02-28T12:27:00;8.25;;;4.43;;
41693;SDS011;27377;50.666;9.150;2023-02-28T12:29:36;9.50;;;4.40;;
41693;SDS011;27377;50.666;9.150;2023-02-28T12:32:06;7.07;;;4.63;;
41693;SDS011;27377;50.666;9.150;2023-02-28T12:34:39;6.80;;;4.40;;
41693;SDS011;27377;50.666;9.150;2023-02-28T12:37:14;7.00;;;4.35;;
41693;SDS011;27377;50.666;9.150;2023-02-28T12:39:51;7.35;;;4.25;;
41693;SDS011;27377;50.666;9.150;2023-02-28T12:42:31;7.85;;;4.40;;
41693;SDS011;27377;50.666;9.150;2023-02-28T12:45:18;6.47;;;4.20;;
41693;SDS011;27377;50.666;9.150;2023-02-28T12:47:48;6.20;;;4.10;;
41693;SDS011;27377;50.666;9.150;2023-02-28T12:50:20;7.47;;;4.20;;
41693;SDS011;27377;50.666;9.150;2023-02-28T12:53:06;7.20;;;4.33;;
41693;SDS011;27377;50.666;9.150;2023-02-28T12:58:45;8.50;;;4.88;;
41693;SDS011;27377;50.666;9.150;2023-02-28T13:09:14;8.68;;;4.70;;
41693;SDS011;27377;50.666;9.150;2023-02-28T13:11:42;6.93;;;4.72;;
41693;SDS011;27377;50.666;9.150;2023-02-28T13:14:26;6.63;;;4.45;;
41693;SDS011;27377;50.666;9.150;2023-02-28T13:19:31;8.45;;;4.60;;
41693;SDS011;27377;50.666;9.150;2023-02-28T13:22:00;7.18;;;4.50;;
41693;SDS011;27377;50.666;9.150;2023-02-28T13:24:46;8.20;;;4.70;;
41693;SDS011;27377;50.666;9.150;2023-02-28T13:27:23;7.20;;;4.50;;
41693;SDS011;27377;50.666;9.150;2023-02-28T13:30:02;7.30;;;4.72;;
41693;SDS011;27377;50.666;9.150;2023-02-28T13:36:06;8.25;;;5.00;;
41693;SDS011;27377;50.666;9.150;2023-02-28T13:38:44;7.50;;;4.90;;
41693;SDS011;27377;50.666;9.150;2023-02-28T13:44:03;8.15;;;4.68;;
41693;SDS011;27377;50.666;9.150;2023-02-28T13:49:19;8.27;;;4.82;;
41693;SDS011;27377;50.666;9.150;2023-02-28T13:51:50;7.35;;;4.97;;
41693;SDS011;27377;50.666;9.150;2023-02-28T13:54:24;7.75;;;4.82;;
41693;SDS011;27377;50.666;9.150;2023-02-28T13:56:56;8.77;;;4.88;;
41693;SDS011;27377;50.666;9.150;2023-02-28T14:02:14;7.93;;;4.90;;
41693;SDS011;27377;50.666;9.150;2023-02-28T14:05:06;8.95;;;4.80;;
41693;SDS011;27377;50.666;9.150;2023-02-28T14:08:02;8.02;;;4.80;;
41693;SDS011;27377;50.666;9.150;2023-02-28T14:10:31;7.50;;;4.83;;
41693;SDS011;27377;50.666;9.150;2023-02-28T14:16:03;7.38;;;4.78;;
41693;SDS011;27377;50.666;9.150;2023-02-28T14:18:31;7.55;;;4.80;;
41693;SDS011;27377;50.666;9.150;2023-02-28T14:26:53;8.25;;;4.30;;
41693;SDS011;27377;50.666;9.150;2023-02-28T14:29:29;7.93;;;4.40;;
41693;SDS011;27377;50.666;9.150;2023-02-28T14:35:03;7.63;;;4.43;;
41693;SDS011;27377;50.666;9.150;2023-02-28T14:37:47;7.93;;;4.45;;
41693;SDS011;27377;50.666;9.150;2023-02-28T14:40:19;8.27;;;4.43;;
41693;SDS011;27377;50.666;9.150;2023-02-28T14:42:55;8.88;;;4.50;;
41693;SDS011;27377;50.666;9.150;2023-02-28T14:45:25;7.10;;;4.60;;
41693;SDS011;27377;50.666;9.150;2023-02-28T14:47:55;7.05;;;4.50;;
41693;SDS011;27377;50.666;9.150;2023-02-28T14:50:23;7.15;;;4.40;;
41693;SDS011;27377;50.666;9.150;2023-02-28T14:52:54;7.55;;;4.40;;
41693;SDS011;27377;50.666;9.150;2023-02-28T14:55:23;8.02;;;4.53;;
41693;SDS011;27377;50.666;9.150;2023-02-28T14:57:52;7.18;;;4.40;;
41693;SDS011;27377;50.666;9.150;2023-02-28T15:02:53;7.70;;;3.90;;
41693;SDS011;27377;50.666;9.150;2023-02-28T15:08:03;7.43;;;4.25;;
41693;SDS011;27377;50.666;9.150;2023-02-28T15:10:42;8.38;;;4.80;;
41693;SDS011;27377;50.666;9.150;2023-02-28T15:13:14;7.28;;;4.38;;
41693;SDS011;27377;50.666;9.150;2023-02-28T15:15:59;7.82;;;4.80;;
41693;SDS011;27377;50.666;9.150;2023-02-28T15:21:20;9.00;;;4.90;;
41693;SDS011;27377;50.666;9.150;2023-02-28T15:23:52;10.02;;;5.50;;
41693;SDS011;27377;50.666;9.150;2023-02-28T15:26:22;9.68;;;4.93;;
41693;SDS011;27377;50.666;9.150;2023-02-28T15:29:04;9.10;;;5.80;;
41693;SDS011;27377;50.666;9.150;2023-02-28T15:31:34;10.73;;;5.50;;
41693;SDS011;27377;50.666;9.150;2023-02-28T15:34:06;7.95;;;4.75;;
41693;SDS011;27377;50.666;9.150;2023-02-28T15:36:40;8.07;;;4.78;;
41693;SDS011;27377;50.666;9.150;2023-02-28T15:39:22;8.07;;;4.57;;
41693;SDS011;27377;50.666;9.150;2023-02-28T15:41:55;8.00;;;4.60;;
41693;SDS011;27377;50.666;9.150;2023-02-28T15:44:35;7.80;;;4.88;;
41693;SDS011;27377;50.666;9.150;2023-02-28T15:50:00;9.32;;;5.00;;
41693;SDS011;27377;50.666;9.150;2023-02-28T15:55:08;7.30;;;4.50;;
41693;SDS011;27377;50.666;9.150;2023-02-28T15:57:40;7.40;;;4.60;;
41693;SDS011;27377;50.666;9.150;2023-02-28T16:00:09;10.13;;;5.00;;
41693;SDS011;27377;50.666;9.150;2023-02-28T16:02:39;7.82;;;4.80;;
41693;SDS011;27377;50.666;9.150;2023-02-28T16:07:36;8.50;;;4.82;;
41693;SDS011;27377;50.666;9.150;2023-02-28T16:10:03;7.50;;;4.40;;
41693;SDS011;27377;50.666;9.150;2023-02-28T16:12:31;7.60;;;4.68;;
41693;SDS011;27377;50.666;9.150;2023-02-28T16:14:59;7.95;;;5.00;;
41693;SDS011;27377;50.666;9.150;2023-02-28T16:17:32;7.90;;;4.68;;
41693;SDS011;27377;50.666;9.150;2023-02-28T16:20:06;7.63;;;4.68;;
41693;SDS011;27377;50.666;9.150;2023-02-28T16:22:44;6.18;;;4.00;;
41693;SDS011;27377;50.666;9.150;2023-02-28T16:25:15;7.00;;;4.47;;
41693;SDS011;27377;50.666;9.150;2023-02-28T16:27:42;7.25;;;4.40;;
41693;SDS011;27377;50.666;9.150;2023-02-28T16:30:15;8.55;;;4.50;;
41693;SDS011;27377;50.666;9.150;2023-02-28T16:32:44;7.78;;;4.35;;
41693;SDS011;27377;50.666;9.150;2023-02-28T16:35:10;7.63;;;4.70;;
41693;SDS011;27377;50.666;9.150;2023-02-28T16:37:39;6.95;;;4.15;;
41693;SDS011;27377;50.666;9.150;2023-02-28T16:40:06;7.87;;;4.53;;
41693;SDS011;27377;50.666;9.150;2023-02-28T16:42:43;7.95;;;4.57;;
41693;SDS011;27377;50.666;9.150;2023-02-28T16:45:14;7.55;;;4.40;;
41693;SDS011;27377;50.666;9.150;2023-02-28T16:47:42;9.60;;;4.28;;
41693;SDS011;27377;50.666;9.150;2023-02-28T16:50:12;7.82;;;4.57;;
41693;SDS011;27377;50.666;9.150;2023-02-28T16:52:48;7.78;;;4.10;;
41693;SDS011;27377;50.666;9.150;2023-02-28T16:55:15;7.50;;;4.50;;
41693;SDS011;27377;50.666;9.150;2023-02-28T16:57:41;7.05;;;4.40;;
41693;SDS011;27377;50.666;9.150;2023-02-28T17:00:12;7.10;;;4.30;;
41693;SDS011;27377;50.666;9.150;2023-02-28T17:02:43;7.40;;;4.18;;
41693;SDS011;27377;50.666;9.150;2023-02-28T17:05:12;6.63;;;4.18;;
41693;SDS011;27377;50.666;9.150;2023-02-28T17:07:39;7.10;;;4.30;;
41693;SDS011;27377;50.666;9.150;2023-02-28T17:10:13;7.55;;;4.50;;
41693;SDS011;27377;50.666;9.150;2023-02-28T17:12:47;8.23;;;4.10;;
41693;SDS011;27377;50.666;9.150;2023-02-28T17:15:14;6.88;;;4.40;;
41693;SDS011;27377;50.666;9.150;2023-02-28T17:17:42;6.90;;;4.50;;
41693;SDS011;27377;50.666;9.150;2023-02-28T17:20:13;7.90;;;4.65;;
41693;SDS011;27377;50.666;9.150;2023-02-28T17:22:40;7.00;;;4.53;;